Time;durP1;ratioP1;P1;durP2;ratioP2;P2;SDS_P1;SDS_P2;PMS_P1;PMS_P2;Temp;Humidity;BMP_temperature;BMP_pressure;BME280_temperature;BME280_humidity;BME280_pressure;Samples;Min_cycle;Max_cycle;Signal;HPM_P1;HPM_P2
2021/01/17 00:00:14;;;;;;;66.50;59.53;;;-0.30;99.90;;;;;;6340117;22;20154;-79
2021/01/17 00:02:41;;;;;;;67.47;60.53;;;-0.30;99.90;;;;;;6338731;22;20165;-79
2021/01/17 00:05:11;;;;;;;63.17;56.97;;;-0.30;99.90;;;;;;6339590;22;20397;-79
2021/01/17 00:07:38;;;;;;;66.20;59.00;;;-0.30;99.90;;;;;;6339750;22;20480;-79
2021/01/17 00:10:06;;;;;;;67.73;56.40;;;-0.20;99.90;;;;;;6339875;22;20456;-79
2021/01/17 00:12:32;;;;;;;62.80;56.25;;;-0.30;99.90;;;;;;6350795;22;20396;-79
2021/01/17 00:14:59;;;;;;;66.53;56.80;;;-0.30;99.90;;;;;;6339837;22;20534;-79
2021/01/17 00:17:26;;;;;;;57.10;51.03;;;-0.20;99.90;;;;;;6338175;22;20938;-79
2021/01/17 00:19:52;;;;;;;64.80;57.75;;;-0.20;99.90;;;;;;6339582;22;20884;-79
2021/01/17 00:22:21;;;;;;;59.05;52.85;;;-0.30;99.90;;;;;;6340044;22;20158;-78
2021/01/17 00:24:47;;;;;;;62.33;54.33;;;-0.30;99.90;;;;;;6350293;22;20200;-79
2021/01/17 00:27:14;;;;;;;59.40;53.50;;;-0.20;99.90;;;;;;6339974;22;20192;-78
2021/01/17 00:29:40;;;;;;;61.97;51.40;;;-0.20;99.90;;;;;;6339571;22;20511;-80
2021/01/17 00:32:09;;;;;;;60.70;51.78;;;-0.20;99.90;;;;;;6337925;22;20159;-78
2021/01/17 00:34:36;;;;;;;69.30;54.87;;;-0.30;99.90;;;;;;6349958;22;20189;-78
2021/01/17 00:37:02;;;;;;;69.47;59.47;;;-0.30;99.90;;;;;;6339789;22;20415;-79
2021/01/17 00:39:29;;;;;;;69.27;58.37;;;-0.30;99.90;;;;;;6339116;22;20963;-79
2021/01/17 00:41:55;;;;;;;58.40;52.30;;;-0.30;99.90;;;;;;6349876;22;20417;-79
2021/01/17 00:44:22;;;;;;;57.27;48.30;;;-0.30;99.90;;;;;;6339723;22;20196;-79
2021/01/17 00:46:48;;;;;;;59.50;50.00;;;-0.30;99.90;;;;;;6339782;22;20488;-79
2021/01/17 00:49:16;;;;;;;54.37;46.70;;;-0.30;99.90;;;;;;6347845;22;20470;-79
2021/01/17 00:51:45;;;;;;;56.08;39.05;;;-0.30;99.90;;;;;;6339666;22;20396;-79
2021/01/17 00:54:12;;;;;;;48.03;33.25;;;-0.30;99.90;;;;;;6339453;22;20464;-79
2021/01/17 00:56:41;;;;;;;51.47;38.00;;;-0.20;99.90;;;;;;6350342;22;20184;-79
2021/01/17 00:59:09;;;;;;;59.55;47.00;;;-0.30;99.90;;;;;;6350043;22;20411;-79
2021/01/17 01:01:39;;;;;;;62.75;49.17;;;-0.30;99.90;;;;;;6339254;22;20616;-79
2021/01/17 01:04:06;;;;;;;57.42;46.60;;;-0.20;99.90;;;;;;6337396;22;20715;-79
2021/01/17 01:06:32;;;;;;;62.53;48.03;;;-0.20;99.90;;;;;;6339497;22;20193;-79
2021/01/17 01:09:01;;;;;;;57.27;47.77;;;-0.20;99.90;;;;;;6339116;22;20468;-79
2021/01/17 01:11:27;;;;;;;68.93;54.38;;;-0.30;99.90;;;;;;6339181;22;20431;-79
2021/01/17 01:13:55;;;;;;;52.67;47.13;;;-0.20;99.90;;;;;;6349574;22;20610;-79
2021/01/17 01:16:21;;;;;;;68.20;53.08;;;-0.20;99.90;;;;;;6339259;22;20193;-80
2021/01/17 01:18:47;;;;;;;65.67;54.90;;;-0.20;99.90;;;;;;6338110;22;20239;-80
2021/01/17 01:21:14;;;;;;;55.37;48.73;;;-0.20;99.90;;;;;;6349809;22;20408;-79
2021/01/17 01:23:41;;;;;;;69.90;55.75;;;-0.20;99.90;;;;;;6339459;22;20430;-80
2021/01/17 01:26:08;;;;;;;69.73;53.57;;;-0.20;99.90;;;;;;6339092;22;20154;-79
2021/01/17 01:28:34;;;;;;;65.65;56.40;;;-0.20;99.90;;;;;;6349552;22;20443;-79
2021/01/17 01:31:01;;;;;;;65.63;57.63;;;-0.20;99.90;;;;;;6339331;22;20162;-79
2021/01/17 01:33:27;;;;;;;70.37;59.67;;;-0.10;99.90;;;;;;6337797;22;20189;-78
2021/01/17 01:35:54;;;;;;;71.13;63.67;;;-0.10;99.90;;;;;;6338817;22;20484;-79
2021/01/17 01:38:20;;;;;;;72.03;62.95;;;-0.10;99.90;;;;;;6338986;22;20593;-79
2021/01/17 01:40:54;;;;;;;80.45;64.45;;;-0.10;99.90;;;;;;6339277;22;20228;-79
2021/01/17 01:43:24;;;;;;;72.20;62.80;;;-0.10;99.90;;;;;;6349826;22;20551;-79
2021/01/17 01:45:51;;;;;;;77.68;61.10;;;-0.10;99.90;;;;;;6339241;22;20764;-79
2021/01/17 01:48:19;;;;;;;72.10;63.53;;;-0.10;99.90;;;;;;6337658;22;20162;-79
2021/01/17 01:50:46;;;;;;;78.00;67.03;;;0.00;99.90;;;;;;6338929;22;20205;-79
2021/01/17 01:53:14;;;;;;;72.73;62.77;;;-0.10;99.90;;;;;;6339251;22;20720;-79
2021/01/17 01:55:43;;;;;;;68.90;61.60;;;-0.10;99.90;;;;;;6339224;22;20426;-79
2021/01/17 01:58:14;;;;;;;75.00;67.53;;;-0.20;99.90;;;;;;6339192;22;20407;-79
2021/01/17 02:00:40;;;;;;;74.50;66.30;;;-0.10;99.90;;;;;;6338897;22;20400;-79
2021/01/17 02:03:07;;;;;;;76.93;68.60;;;-0.10;99.90;;;;;;6348070;22;20439;-80
2021/01/17 02:05:34;;;;;;;77.35;69.35;;;-0.10;99.90;;;;;;6339036;22;20397;-80
2021/01/17 02:08:20;;;;;;;79.50;65.85;;;0.00;99.90;;;;;;6338795;22;20154;-81
2021/01/17 02:10:47;;;;;;;69.22;62.08;;;-0.10;99.90;;;;;;6339045;22;20280;-80
2021/01/17 02:13:20;;;;;;;72.10;63.17;;;-0.10;99.90;;;;;;6349236;22;20530;-80
2021/01/17 02:15:52;;;;;;;74.83;64.83;;;0.00;99.90;;;;;;6338621;22;20477;-80
2021/01/17 02:18:21;;;;;;;73.87;66.20;;;-0.10;99.90;;;;;;6347588;22;20768;-80
2021/01/17 02:20:49;;;;;;;75.33;66.83;;;-0.10;99.90;;;;;;6338893;22;20399;-81
2021/01/17 02:23:19;;;;;;;77.67;68.20;;;-0.10;99.90;;;;;;6349155;22;20431;-81
2021/01/17 02:25:47;;;;;;;74.78;64.88;;;-0.10;99.90;;;;;;6338427;22;20895;-79
2021/01/17 02:28:16;;;;;;;74.07;63.85;;;-0.10;99.90;;;;;;6338890;22;20183;-80
2021/01/17 02:30:46;;;;;;;78.75;63.35;;;0.00;99.90;;;;;;6338543;22;20182;-80
2021/01/17 02:33:17;;;;;;;77.80;65.70;;;-0.10;99.90;;;;;;6337230;22;20214;-79
2021/01/17 02:35:46;;;;;;;78.90;71.00;;;-0.10;99.90;;;;;;6338874;22;20502;-80
2021/01/17 02:38:24;;;;;;;83.27;74.07;;;0.00;99.90;;;;;;6338370;22;20471;-79
2021/01/17 02:41:04;;;;;;;77.17;69.33;;;-0.10;99.90;;;;;;6338394;22;20403;-80
2021/01/17 02:43:31;;;;;;;75.13;67.35;;;-0.10;99.90;;;;;;6338965;22;20485;-81
2021/01/17 02:45:57;;;;;;;75.45;67.40;;;-0.10;99.90;;;;;;6338828;22;20173;-79
2021/01/17 02:48:24;;;;;;;81.23;69.50;;;-0.10;99.90;;;;;;6347085;22;20226;-79
2021/01/17 02:50:50;;;;;;;78.03;69.63;;;-0.10;99.90;;;;;;6348893;22;20511;-79
2021/01/17 02:53:23;;;;;;;76.68;66.40;;;0.00;99.90;;;;;;6348897;22;20400;-80
2021/01/17 02:55:56;;;;;;;74.37;66.70;;;0.00;99.90;;;;;;6338766;22;20188;-79
2021/01/17 02:58:25;;;;;;;75.15;67.13;;;-0.10;99.90;;;;;;6338535;22;21029;-79
2021/01/17 03:00:55;;;;;;;78.13;67.40;;;-0.10;99.90;;;;;;6338339;22;20607;-79
2021/01/17 03:03:26;;;;;;;85.55;70.60;;;-0.10;99.90;;;;;;6337170;22;20182;-79
2021/01/17 03:05:52;;;;;;;71.63;63.57;;;-0.10;99.90;;;;;;6338236;22;20186;-79
2021/01/17 03:08:19;;;;;;;74.03;65.70;;;-0.10;99.90;;;;;;6338458;22;20436;-79
2021/01/17 03:10:46;;;;;;;78.97;70.57;;;-0.10;99.90;;;;;;6348703;22;20451;-80
2021/01/17 03:13:13;;;;;;;78.13;67.77;;;-0.10;99.90;;;;;;6338750;22;20487;-79
2021/01/17 03:15:41;;;;;;;69.43;62.20;;;0.00;99.90;;;;;;6338557;22;20486;-79
2021/01/17 03:18:07;;;;;;;77.22;69.57;;;-0.10;99.90;;;;;;6336744;22;20465;-79
2021/01/17 03:20:34;;;;;;;77.87;70.00;;;-0.10;99.90;;;;;;6348431;22;20158;-79
2021/01/17 03:23:00;;;;;;;80.60;69.80;;;0.00;99.90;;;;;;6338310;22;20400;-79
2021/01/17 03:25:26;;;;;;;74.90;67.63;;;-0.10;99.90;;;;;;6348935;22;20432;-78
2021/01/17 03:27:53;;;;;;;77.23;66.70;;;-0.10;99.90;;;;;;6340305;22;20801;-79
2021/01/17 03:30:21;;;;;;;86.70;72.83;;;-0.10;99.90;;;;;;6340288;22;20493;-79
2021/01/17 03:32:47;;;;;;;73.78;66.13;;;-0.10;99.90;;;;;;6338882;22;20493;-79
2021/01/17 03:35:14;;;;;;;70.45;62.83;;;-0.10;99.90;;;;;;6340324;22;20158;-79
2021/01/17 03:37:40;;;;;;;73.35;63.20;;;-0.10;99.90;;;;;;6350560;22;20226;-79
2021/01/17 03:40:07;;;;;;;70.93;63.30;;;0.00;99.90;;;;;;6340315;22;20159;-80
2021/01/17 03:42:34;;;;;;;73.77;65.93;;;0.00;99.90;;;;;;6340333;22;20403;-79
2021/01/17 03:45:00;;;;;;;78.35;65.75;;;0.00;99.90;;;;;;6339772;22;20440;-79
2021/01/17 03:47:27;;;;;;;74.88;61.80;;;0.10;99.90;;;;;;6338800;22;20155;-80
2021/01/17 03:49:54;;;;;;;71.40;63.67;;;0.00;99.90;;;;;;6339717;22;20323;-81
2021/01/17 03:52:20;;;;;;;78.53;68.73;;;0.00;99.90;;;;;;6350764;22;20180;-79
2021/01/17 03:54:46;;;;;;;84.67;67.80;;;0.00;99.90;;;;;;6340125;22;20553;-79
2021/01/17 03:57:13;;;;;;;77.00;65.38;;;0.00;99.90;;;;;;6340201;22;20397;-79
2021/01/17 03:59:41;;;;;;;74.95;65.00;;;0.10;99.90;;;;;;6339638;22;20161;-79
2021/01/17 04:02:07;;;;;;;71.43;63.47;;;0.00;99.90;;;;;;6339106;22;20155;-79
2021/01/17 04:04:34;;;;;;;75.50;66.07;;;0.00;99.90;;;;;;6350361;22;20790;-79
2021/01/17 04:07:01;;;;;;;78.20;68.57;;;0.00;99.90;;;;;;6340151;22;20437;-79
2021/01/17 04:09:27;;;;;;;77.18;65.72;;;0.00;99.90;;;;;;6339429;22;20464;-79
2021/01/17 04:11:53;;;;;;;72.47;63.10;;;0.00;99.90;;;;;;6339794;22;20598;-80
2021/01/17 04:14:20;;;;;;;72.40;64.83;;;0.00;99.90;;;;;;6350064;22;20408;-79
2021/01/17 04:16:50;;;;;;;79.97;68.07;;;0.00;99.90;;;;;;6340087;22;20407;-79
2021/01/17 04:19:16;;;;;;;85.67;68.60;;;0.00;99.90;;;;;;6338573;22;20401;-78
2021/01/17 04:21:44;;;;;;;77.78;69.32;;;0.00;99.90;;;;;;6339574;22;20983;-79
2021/01/17 04:24:10;;;;;;;77.80;68.03;;;0.10;99.90;;;;;;6339949;22;20199;-79
2021/01/17 04:26:37;;;;;;;74.83;66.37;;;0.00;99.90;;;;;;6339634;22;20443;-79
2021/01/17 04:29:03;;;;;;;76.90;68.70;;;0.00;99.90;;;;;;6339231;22;20453;-80
2021/01/17 04:31:42;;;;;;;77.77;65.97;;;0.00;99.90;;;;;;6339851;22;20404;-79
2021/01/17 04:34:09;;;;;;;75.50;67.70;;;0.00;99.90;;;;;;6348652;22;20404;-80
2021/01/17 04:36:35;;;;;;;75.40;67.47;;;0.10;99.90;;;;;;6349923;22;20872;-80
2021/01/17 04:39:03;;;;;;;74.63;66.25;;;0.00;99.90;;;;;;6339313;22;20446;-80
2021/01/17 04:41:30;;;;;;;77.70;65.20;;;0.00;99.90;;;;;;6350208;22;20409;-79
2021/01/17 04:43:58;;;;;;;73.20;64.20;;;0.00;99.90;;;;;;6349710;22;20496;-79
2021/01/17 04:46:27;;;;;;;68.87;61.37;;;0.10;99.90;;;;;;6339471;22;20404;-79
2021/01/17 04:49:09;;;;;;;71.87;63.70;;;0.10;99.90;;;;;;6336987;22;20437;-80
2021/01/17 04:51:36;;;;;;;77.47;61.60;;;0.00;99.90;;;;;;6339660;22;21138;-79
2021/01/17 04:54:06;;;;;;;93.05;63.80;;;0.00;99.90;;;;;;6339437;22;20184;-80
2021/01/17 04:56:38;;;;;;;75.57;64.00;;;0.00;99.90;;;;;;6349643;22;20158;-79
2021/01/17 04:59:12;;;;;;;75.57;65.83;;;0.10;99.90;;;;;;6339759;22;20404;-79
2021/01/17 05:01:49;;;;;;;74.03;66.00;;;0.00;99.90;;;;;;6339579;22;20544;-78
2021/01/17 05:04:33;;;;;;;83.53;62.45;;;0.10;99.90;;;;;;6338203;22;20801;-78
2021/01/17 05:07:07;;;;;;;72.53;59.83;;;0.00;99.90;;;;;;6339513;22;20185;-79
2021/01/17 05:09:43;;;;;;;83.03;61.37;;;0.00;99.90;;;;;;6350389;22;20462;-78
2021/01/17 05:12:13;;;;;;;70.57;60.97;;;0.00;99.90;;;;;;6339213;22;20875;-79
2021/01/17 05:14:43;;;;;;;73.40;59.57;;;0.20;99.90;;;;;;6339299;22;20393;-79
2021/01/17 05:17:10;;;;;;;77.33;61.30;;;0.10;99.90;;;;;;6337524;22;20408;-79
2021/01/17 05:19:53;;;;;;;70.15;59.38;;;0.10;99.90;;;;;;6339098;22;20432;-81
2021/01/17 05:22:20;;;;;;;83.85;63.80;;;0.10;99.90;;;;;;6349403;22;20162;-77
2021/01/17 05:24:53;;;;;;;78.57;61.53;;;0.10;99.90;;;;;;6349272;22;20485;-80
2021/01/17 05:27:20;;;;;;;75.90;62.63;;;0.20;99.90;;;;;;6339269;22;20393;-80
2021/01/17 05:29:46;;;;;;;79.20;63.40;;;0.10;99.90;;;;;;6339272;22;20792;-79
2021/01/17 05:32:15;;;;;;;67.47;60.40;;;0.10;99.90;;;;;;6347704;22;20671;-79
2021/01/17 05:34:44;;;;;;;77.10;60.90;;;0.10;99.90;;;;;;6339038;22;20975;-78
2021/01/17 05:37:12;;;;;;;76.80;59.93;;;0.20;99.90;;;;;;6339357;22;20534;-79
2021/01/17 05:39:57;;;;;;;77.60;58.43;;;0.10;99.90;;;;;;6339487;22;20744;-78
2021/01/17 05:42:24;;;;;;;73.00;59.40;;;0.20;99.90;;;;;;6339172;22;20396;-79
2021/01/17 05:44:51;;;;;;;64.43;57.30;;;0.10;99.90;;;;;;6338911;22;20187;-80
2021/01/17 05:47:21;;;;;;;72.50;59.53;;;0.20;99.90;;;;;;6347768;22;20400;-79
2021/01/17 05:49:48;;;;;;;72.68;53.58;;;0.20;99.90;;;;;;6338222;22;20456;-78
2021/01/17 05:52:15;;;;;;;65.18;51.67;;;0.10;99.90;;;;;;6338865;22;20609;-79
2021/01/17 05:54:43;;;;;;;67.38;52.42;;;0.10;99.90;;;;;;6338970;22;20155;-74
2021/01/17 05:57:23;;;;;;;66.83;53.33;;;0.20;99.90;;;;;;6338926;22;20151;-78
2021/01/17 05:59:49;;;;;;;96.37;63.00;;;0.20;99.90;;;;;;6338668;22;20898;-78
2021/01/17 06:02:17;;;;;;;63.67;54.23;;;0.20;99.90;;;;;;6347184;22;20432;-79
2021/01/17 06:04:44;;;;;;;74.03;57.33;;;0.20;99.90;;;;;;6338880;22;20424;-79
2021/01/17 06:07:16;;;;;;;72.90;56.10;;;0.20;99.90;;;;;;6348836;22;20919;-80
2021/01/17 06:09:44;;;;;;;66.57;54.80;;;0.30;99.90;;;;;;6338892;22;20473;-79
2021/01/17 06:12:11;;;;;;;71.43;55.20;;;0.20;99.90;;;;;;6338701;22;20438;-79
2021/01/17 06:14:38;;;;;;;77.97;58.37;;;0.10;99.90;;;;;;6348411;22;20802;-79
2021/01/17 06:17:05;;;;;;;79.50;60.80;;;0.20;99.90;;;;;;6348555;22;20440;-79
2021/01/17 06:19:33;;;;;;;69.07;54.80;;;0.20;99.90;;;;;;6338509;22;20397;-79
2021/01/17 06:22:01;;;;;;;71.37;55.30;;;0.20;99.90;;;;;;6348539;22;20164;-79
2021/01/17 06:24:35;;;;;;;74.80;53.07;;;0.20;99.90;;;;;;6338822;22;20721;-78
2021/01/17 06:27:03;;;;;;;58.33;49.72;;;0.10;99.90;;;;;;6349239;22;20488;-78
2021/01/17 06:29:38;;;;;;;70.40;50.50;;;0.20;99.90;;;;;;6338222;22;20704;-79
2021/01/17 06:32:13;;;;;;;69.90;52.88;;;0.20;99.90;;;;;;6347768;22;20208;-79
2021/01/17 06:34:44;;;;;;;72.53;53.53;;;0.20;99.90;;;;;;6338968;22;20175;-78
2021/01/17 06:37:12;;;;;;;78.47;57.10;;;0.30;99.90;;;;;;6348423;22;20970;-79
2021/01/17 06:39:43;;;;;;;66.73;59.33;;;0.30;99.90;;;;;;6338934;22;20713;-78
2021/01/17 06:42:13;;;;;;;78.53;57.20;;;0.20;99.90;;;;;;6338338;22;20407;-78
2021/01/17 06:44:49;;;;;;;68.70;51.67;;;0.20;99.90;;;;;;6348532;22;20405;-78
2021/01/17 06:47:19;;;;;;;84.85;61.20;;;0.20;99.90;;;;;;6336910;22;20890;-79
2021/01/17 06:49:46;;;;;;;75.60;60.20;;;0.30;99.90;;;;;;6348545;22;20226;-79
2021/01/17 06:52:14;;;;;;;73.78;61.03;;;0.20;99.90;;;;;;6338645;22;20483;-79
2021/01/17 06:54:43;;;;;;;76.85;62.67;;;0.30;99.90;;;;;;6348800;22;20181;-79
2021/01/17 06:57:13;;;;;;;83.73;62.80;;;0.20;99.90;;;;;;6348284;22;20163;-79
2021/01/17 06:59:43;;;;;;;83.17;72.20;;;0.30;99.90;;;;;;6348586;22;20408;-80
2021/01/17 07:02:39;;;;;;;78.60;66.87;;;0.20;99.90;;;;;;6349816;22;20435;-79
2021/01/17 07:05:29;;;;;;;71.33;62.17;;;0.20;99.90;;;;;;6351419;22;20405;-79
2021/01/17 07:08:20;;;;;;;82.10;63.97;;;0.30;99.90;;;;;;6340231;22;20397;-79
2021/01/17 07:10:53;;;;;;;78.70;61.03;;;0.20;99.90;;;;;;6340447;22;20459;-79
2021/01/17 07:13:26;;;;;;;83.97;63.97;;;0.30;99.90;;;;;;6351057;22;20493;-79
2021/01/17 07:15:56;;;;;;;74.77;64.07;;;0.30;99.90;;;;;;6340315;22;20487;-79
2021/01/17 07:18:25;;;;;;;83.83;67.07;;;0.30;99.90;;;;;;6338779;22;20393;-79
2021/01/17 07:20:56;;;;;;;94.67;74.87;;;0.40;99.90;;;;;;6340175;22;20458;-79
2021/01/17 07:23:24;;;;;;;79.60;70.88;;;0.30;99.90;;;;;;6350616;22;20438;-79
2021/01/17 07:25:51;;;;;;;84.83;75.53;;;0.40;99.90;;;;;;6350729;22;20174;-79
2021/01/17 07:28:18;;;;;;;81.67;72.67;;;0.40;99.90;;;;;;6340241;22;20427;-79
2021/01/17 07:30:51;;;;;;;87.50;73.97;;;0.30;99.90;;;;;;6350798;22;20444;-79
2021/01/17 07:33:25;;;;;;;81.80;73.40;;;0.40;99.90;;;;;;6338186;22;20158;-79
2021/01/17 07:35:53;;;;;;;88.93;76.10;;;0.40;99.90;;;;;;6339617;22;20427;-79
2021/01/17 07:38:21;;;;;;;91.40;81.47;;;0.40;99.90;;;;;;6339633;22;20790;-78
2021/01/17 07:40:53;;;;;;;97.90;86.20;;;0.40;99.90;;;;;;6339313;22;20440;-78
2021/01/17 07:43:25;;;;;;;105.23;91.60;;;0.40;99.90;;;;;;6338987;22;20957;-78
2021/01/17 07:45:53;;;;;;;100.13;89.87;;;0.40;99.90;;;;;;6339516;22;20535;-78
2021/01/17 07:48:21;;;;;;;94.87;82.20;;;0.40;99.90;;;;;;6338084;22;20443;-79
2021/01/17 07:50:48;;;;;;;100.77;84.23;;;0.50;99.90;;;;;;6318677;22;20429;-77
2021/01/17 07:53:25;;;;;;;94.43;84.17;;;0.40;99.90;;;;;;6309089;22;20769;-78
2021/01/17 07:55:58;;;;;;;95.30;84.73;;;0.50;99.90;;;;;;6308509;22;20397;-78
2021/01/17 07:58:27;;;;;;;95.40;80.93;;;0.50;99.90;;;;;;6318983;22;20506;-78
2021/01/17 08:00:54;;;;;;;96.07;78.60;;;0.40;99.90;;;;;;6308568;22;20401;-78
2021/01/17 08:03:27;;;;;;;91.27;80.63;;;0.50;99.90;;;;;;6306627;22;20432;-78
2021/01/17 08:05:55;;;;;;;96.30;79.53;;;0.50;99.90;;;;;;6318816;22;21036;-78
2021/01/17 08:08:46;;;;;;;90.93;80.83;;;0.60;99.90;;;;;;6318876;22;20801;-78
2021/01/17 08:11:41;;;;;;;95.13;82.53;;;0.50;99.90;;;;;;6308243;22;21016;-78
2021/01/17 08:14:21;;;;;;;90.18;66.82;;;0.60;99.90;;;;;;6308786;22;20443;-78
2021/01/17 08:17:05;;;;;;;99.17;73.37;;;0.60;99.90;;;;;;6308552;22;20197;-78
2021/01/17 08:19:41;;;;;;;96.57;80.95;;;0.70;99.90;;;;;;6308005;22;20431;-78
2021/01/17 08:22:46;;;;;;;108.43;90.10;;;0.70;99.90;;;;;;6308459;22;20155;-78
2021/01/17 08:25:33;;;;;;;105.90;82.90;;;0.70;99.90;;;;;;6308562;22;20396;-78
2021/01/17 08:27:59;;;;;;;103.27;85.00;;;0.80;99.90;;;;;;6307733;22;20499;-78
2021/01/17 08:30:26;;;;;;;110.23;86.80;;;0.80;99.90;;;;;;6308067;22;20531;-78
2021/01/17 08:32:53;;;;;;;106.53;93.37;;;0.80;99.90;;;;;;6306748;22;20878;-78
2021/01/17 08:35:33;;;;;;;99.70;88.77;;;0.90;99.90;;;;;;6308455;22;20421;-78
2021/01/17 08:38:20;;;;;;;102.80;91.20;;;0.90;99.90;;;;;;6308625;22;20397;-78
2021/01/17 08:40:55;;;;;;;103.07;92.47;;;1.00;99.90;;;;;;6308592;22;20443;-77
2021/01/17 08:43:39;;;;;;;101.77;91.30;;;1.00;99.90;;;;;;6308538;22;20431;-78
2021/01/17 08:46:06;;;;;;;103.40;90.77;;;1.10;99.90;;;;;;6305358;22;20913;-78
2021/01/17 08:48:33;;;;;;;100.13;88.77;;;1.00;99.90;;;;;;6305047;22;20702;-78
2021/01/17 08:51:19;;;;;;;102.77;88.37;;;1.00;99.90;;;;;;6337223;22;20440;-77
2021/01/17 08:53:46;;;;;;;111.00;82.40;;;1.00;99.90;;;;;;6337551;22;20400;-78
2021/01/17 08:56:23;;;;;;;92.37;82.23;;;1.00;99.90;;;;;;6347956;22;20366;-78
2021/01/17 08:58:50;;;;;;;97.60;80.00;;;1.00;99.90;;;;;;6337074;22;20432;-79
2021/01/17 09:01:18;;;;;;;104.63;80.13;;;1.00;99.90;;;;;;6337426;22;20900;-78
2021/01/17 09:03:56;;;;;;;90.17;79.47;;;0.90;99.90;;;;;;6336120;22;20488;-78
2021/01/17 09:06:31;;;;;;;96.63;85.27;;;1.00;99.90;;;;;;6347639;22;20401;-78
2021/01/17 09:09:07;;;;;;;91.13;81.40;;;1.10;99.90;;;;;;6337305;22;20447;-78
2021/01/17 09:11:38;;;;;;;112.63;100.00;;;0.90;99.90;;;;;;6337435;22;20403;-75
2021/01/17 09:14:22;;;;;;;116.23;103.53;;;1.00;99.90;;;;;;6337470;22;20397;-80
2021/01/17 09:16:53;;;;;;;122.05;110.00;;;1.00;99.90;;;;;;6336826;22;20485;-79
2021/01/17 09:19:25;;;;;;;117.33;104.93;;;1.00;99.90;;;;;;6335993;22;20159;-80
2021/01/17 09:21:53;;;;;;;123.80;110.87;;;1.00;99.90;;;;;;6337428;22;20401;-80
2021/01/17 09:24:22;;;;;;;131.73;119.37;;;1.00;99.90;;;;;;6347771;22;20799;-80
2021/01/17 09:26:50;;;;;;;125.50;112.43;;;1.10;99.90;;;;;;6337360;22;21247;-80
2021/01/17 09:29:23;;;;;;;132.90;119.67;;;1.00;99.90;;;;;;6347382;22;20404;-81
2021/01/17 09:31:53;;;;;;;131.93;118.47;;;1.10;99.90;;;;;;6337378;22;20425;-81
2021/01/17 09:34:23;;;;;;;131.93;119.10;;;1.00;99.90;;;;;;6336141;22;20397;-81
2021/01/17 09:36:52;;;;;;;136.47;123.40;;;1.20;99.90;;;;;;6337382;22;20481;-81
2021/01/17 09:39:31;;;;;;;129.95;115.95;;;1.10;99.90;;;;;;6337504;22;20469;-80
2021/01/17 09:42:23;;;;;;;124.75;112.65;;;1.10;99.90;;;;;;6337177;22;20154;-81
2021/01/17 09:44:52;;;;;;;122.03;110.00;;;1.20;99.90;;;;;;6324205;22;20163;-80
2021/01/17 09:47:24;;;;;;;127.83;116.10;;;1.10;99.90;;;;;;6335771;22;20483;-80
2021/01/17 09:49:53;;;;;;;133.37;120.47;;;1.20;99.90;;;;;;6337100;22;20447;-81
2021/01/17 09:52:22;;;;;;;134.47;121.83;;;1.10;99.90;;;;;;6347303;22;20429;-80
2021/01/17 09:55:10;;;;;;;141.65;127.78;;;1.20;99.90;;;;;;6337078;22;20405;-81
2021/01/17 09:57:41;;;;;;;133.23;120.97;;;1.20;99.90;;;;;;6337143;22;20609;-80
2021/01/17 10:00:14;;;;;;;137.27;125.67;;;1.20;99.90;;;;;;6347947;22;20475;-80
2021/01/17 10:02:44;;;;;;;139.73;126.73;;;1.20;99.90;;;;;;6335743;22;20432;-83
2021/01/17 10:05:11;;;;;;;128.07;115.10;;;1.30;99.90;;;;;;6337060;22;20442;-80
2021/01/17 10:07:40;;;;;;;132.27;119.77;;;1.30;99.90;;;;;;6337346;22;20155;-82
2021/01/17 10:10:14;;;;;;;143.47;130.80;;;1.20;99.90;;;;;;6336722;22;20425;-81
2021/01/17 10:13:07;;;;;;;145.17;132.93;;;1.30;99.90;;;;;;6337259;22;20488;-82
2021/01/17 10:16:01;;;;;;;150.57;136.10;;;1.40;99.90;;;;;;6292464;22;20409;-82
2021/01/17 10:19:12;;;;;;;155.47;139.97;;;1.40;99.90;;;;;;6180140;23;20409;-83
2021/01/17 11:32:36;;;;;;;138.70;124.70;;;2.00;99.90;;;;;;5922312;23;20173;-82
2021/01/17 11:35:48;;;;;;;;;;;;;;;;;;;;;
2021/01/17 11:39:04;;;;;;;145.83;130.07;;;2.00;99.90;;;;;;5997868;23;20743;-82
2021/01/17 11:41:53;;;;;;;146.27;131.03;;;2.00;99.90;;;;;;6249495;22;20457;-82
2021/01/17 11:44:25;;;;;;;151.47;135.27;;;2.10;99.90;;;;;;6286186;22;20414;-81
2021/01/17 11:47:00;;;;;;;164.50;129.77;;;2.20;99.90;;;;;;6286352;22;20952;-82
2021/01/17 11:49:39;;;;;;;153.97;130.50;;;2.30;99.90;;;;;;6286820;22;20156;-82
2021/01/17 11:52:36;;;;;;;145.07;127.03;;;2.20;99.90;;;;;;6287922;22;20561;-83
2021/01/17 11:55:26;;;;;;;134.77;121.77;;;2.10;99.90;;;;;;6283255;22;20441;-83
2021/01/17 11:58:12;;;;;;;143.57;128.90;;;2.00;99.90;;;;;;6318919;22;20452;-82
2021/01/17 12:01:25;;;;;;;151.93;129.43;;;2.00;99.90;;;;;;6308391;22;20432;-81
2021/01/17 12:04:27;;;;;;;148.37;132.70;;;2.00;99.90;;;;;;6306259;22;20408;-83
2021/01/17 12:07:07;;;;;;;147.03;131.40;;;2.10;99.90;;;;;;6304953;22;20420;-85
2021/01/17 12:09:48;;;;;;;153.97;137.80;;;2.20;99.90;;;;;;6339787;22;20404;-81
2021/01/17 12:12:20;;;;;;;157.93;138.40;;;2.20;99.90;;;;;;6339553;22;20408;-85
2021/01/17 12:14:51;;;;;;;157.23;135.40;;;2.20;99.90;;;;;;6350546;22;20458;-83
2021/01/17 12:17:17;;;;;;;150.73;134.53;;;2.20;99.90;;;;;;6338727;22;20397;-83
2021/01/17 12:19:45;;;;;;;150.53;134.20;;;2.00;99.90;;;;;;6350064;22;20408;-85
2021/01/17 12:22:30;;;;;;;;;;;;;;;;;;;;;
2021/01/17 12:25:07;;;;;;;161.40;139.97;;;2.00;99.90;;;;;;6350122;22;20485;-84
2021/01/17 12:28:04;;;;;;;;;;;;;;;;;;;;;
2021/01/17 12:30:45;;;;;;;162.93;143.27;;;1.90;99.90;;;;;;6342511;22;20927;-83
2021/01/17 12:43:08;;;;;;;169.70;141.27;;;1.90;99.90;;;;;;6336023;22;20169;-83
2021/01/17 12:48:41;;;;;;;162.27;145.77;;;1.90;99.90;;;;;;6329891;22;20162;-84
2021/01/17 12:51:44;;;;;;;157.35;135.70;;;2.10;99.90;;;;;;6349940;22;20471;-84
2021/01/17 12:54:23;;;;;;;;;;;;;;;;;;;;;
2021/01/17 12:56:57;;;;;;;179.53;149.77;;;2.30;99.90;;;;;;6349207;22;20942;-83
2021/01/17 12:59:29;;;;;;;170.37;143.97;;;2.20;99.90;;;;;;6350090;22;20408;-84
2021/01/17 13:02:01;;;;;;;191.07;154.27;;;2.30;99.90;;;;;;6349564;22;20407;-84
2021/01/17 13:05:06;;;;;;;179.13;154.57;;;2.30;99.90;;;;;;6348772;22;20405;-85
2021/01/17 13:07:44;;;;;;;191.57;157.57;;;2.30;99.90;;;;;;6339820;22;20400;-84
2021/01/17 13:11:00;;;;;;;184.90;165.53;;;2.20;99.90;;;;;;6337963;22;20549;-85
2021/01/17 13:20:07;;;;;;;;;;;;;;;;;;;;;
2021/01/17 13:22:46;;;;;;;168.30;149.97;;;2.30;99.90;;;;;;6329958;22;20744;-84
2021/01/17 13:25:22;;;;;;;191.93;154.13;;;2.40;99.90;;;;;;6336932;22;20479;-84
2021/01/17 13:27:53;;;;;;;173.53;149.00;;;2.30;99.90;;;;;;6338053;22;20485;-83
2021/01/17 13:30:23;;;;;;;173.47;151.37;;;2.30;99.90;;;;;;6347470;22;20437;-84
2021/01/17 13:32:52;;;;;;;189.18;146.20;;;2.30;99.90;;;;;;6336403;22;20491;-83
2021/01/17 13:35:23;;;;;;;207.35;146.52;;;2.30;99.90;;;;;;6348220;22;20151;-83
2021/01/17 13:37:51;;;;;;;222.80;155.97;;;2.40;99.90;;;;;;6337101;22;20606;-83
2021/01/17 13:40:17;;;;;;;193.65;142.13;;;2.40;99.90;;;;;;6337436;22;20486;-78
2021/01/17 13:42:44;;;;;;;174.38;137.85;;;2.40;99.90;;;;;;6347764;22;20163;-81
2021/01/17 13:45:12;;;;;;;175.07;143.20;;;2.50;99.90;;;;;;6347305;22;20181;-81
2021/01/17 13:47:41;;;;;;;191.07;138.40;;;2.40;99.90;;;;;;6336436;22;20404;-81
2021/01/17 13:50:09;;;;;;;178.07;137.83;;;2.50;99.90;;;;;;6349125;22;20420;-80
2021/01/17 13:52:42;;;;;;;166.90;141.37;;;2.50;99.90;;;;;;6349358;22;20409;-81
2021/01/17 13:55:09;;;;;;;178.97;150.87;;;2.70;99.90;;;;;;6339119;22;20856;-81
2021/01/17 13:57:37;;;;;;;167.47;150.10;;;2.90;99.90;;;;;;6338799;22;20405;-81
2021/01/17 14:00:06;;;;;;;171.37;152.43;;;3.10;99.90;;;;;;6338707;22;20397;-82
2021/01/17 14:02:33;;;;;;;192.17;154.73;;;3.20;99.90;;;;;;6346744;22;20400;-81
2021/01/17 14:05:03;;;;;;;173.90;151.50;;;3.40;99.90;;;;;;6349352;22;20408;-81
2021/01/17 14:07:31;;;;;;;177.03;150.33;;;3.60;99.90;;;;;;6349546;22;20397;-81
2021/01/17 14:09:58;;;;;;;168.97;150.73;;;3.70;99.90;;;;;;6348521;22;21045;-82
2021/01/17 14:12:24;;;;;;;160.20;142.90;;;3.80;99.90;;;;;;6349018;22;20407;-81
2021/01/17 14:14:51;;;;;;;179.77;145.40;;;4.00;99.90;;;;;;6349396;22;20158;-82
2021/01/17 14:17:23;;;;;;;163.17;144.80;;;4.40;99.90;;;;;;6337224;22;20884;-82
2021/01/17 14:20:05;;;;;;;;;;;;;;;;;;;;;
2021/01/17 14:26:40;;;;;;;;;;;;;;;;;;;;;
2021/01/17 16:46:08;;;;;;;241.17;227.77;;;4.30;99.90;;;;;;6282114;22;20930;-82
2021/01/17 16:49:04;;;;;;;;;;;;;;;;;;;;;
2021/01/17 16:55:22;;;;;;;246.00;233.30;;;4.70;99.90;;;;;;6253395;22;20734;-84
2021/01/17 17:23:13;;;;;;;178.60;167.57;;;4.20;99.90;;;;;;5928352;23;20186;-79